Valtellina — ICKF — position and weather

sailwx.info

Track history (hours):
 
Tides and Currents Weather Stations Pressure Air Temp Water Temp Dewpoint Dewpoint Depression Visibility Wind Speed Wind Dir Waves Ship Positions

Valtellina

Last reported at 2017-May-23 06:30 UTC. Time now 2017-May-23 06:55 UTC.
Position N 38°40' W 010°06'.

Length 184 m; draft 7.5 m.

Type: Ship. MMSI: 247243900.

Date/timePositionNaut miles runAvg speedWind from/ knotsBaromVisibWave heightAir tempDewpointWater temp
2017-May-23 06:30N 38°40' W 010°06'612.9
2017-May-23 06:00N 38°46' W 010°07'713.5
2017-May-23 05:30N 38°53' W 010°07'713.5
2017-May-23 05:00N 38°59' W 010°07'713.5
2017-May-23 04:30N 39°06' W 010°07'713.5
2017-May-23 04:00N 39°13' W 010°07'713.1
2017-May-23 03:30N 39°20' W 010°07'913.1
2017-May-23 02:49N 39°28' W 010°06'412.9
2017-May-23 02:30N 39°32' W 010°05'713.3
2017-May-23 02:00N 39°39' W 010°05'713.2
2017-May-23 01:30N 39°46' W 010°05'813.1
2017-May-23 00:54N 39°54' W 010°06'513.1
2017-May-23 00:30N 39°59' W 010°06'713.2
2017-May-23 00:00N 40°05' W 010°06'713.4
2017-May-22 23:30N 40°12' W 010°06'613.2
2017-May-22 23:00N 40°19' W 010°06'713.3
2017-May-22 22:30N 40°25' W 010°06'713.4
2017-May-22 21:57N 40°33' W 010°06'613.3
2017-May-22 21:30N 40°39' W 010°06'713.4
2017-May-22 21:00N 40°45' W 010°06'713.5
2017-May-22 20:30N 40°52' W 010°06'813.6
2017-May-22 19:54N 41°00' W 010°06'50012.6
2017-May-21 04:10N 48°46' W 005°52'513.4
2017-May-21 03:49N 48°50' W 005°48'513.1
2017-May-21 03:28N 48°54' W 005°44'1113.0
2017-May-21 02:35N 49°01' W 005°30'1212.5
2017-May-21 01:38N 49°07' W 005°14'412.2
2017-May-21 01:21N 49°09' W 005°10'512.1
2017-May-21 00:54N 49°11' W 005°03'612.0
2017-May-21 00:25N 49°14' W 004°55'611.9
2017-May-20 23:55N 49°18' W 004°47'511.9
2017-May-20 23:30N 49°20' W 004°41'811.9
2017-May-20 22:48N 49°24' W 004°29'412.1
2017-May-20 22:30N 49°26' W 004°24'712.3
2017-May-20 21:57N 49°29' W 004°15'712.6
2017-May-20 21:25N 49°32' W 004°06'512.8
2017-May-20 20:59N 49°35' W 003°59'913.0
2017-May-20 20:19N 49°40' W 003°48'413.1
2017-May-20 19:59N 49°42' W 003°42'713.2
2017-May-20 19:30N 49°45' W 003°33'613.1
2017-May-20 19:00N 49°48' W 003°24'612.8
2017-May-20 18:30N 49°51' W 003°16'612.7
2017-May-20 18:00N 49°54' W 003°07'612.4
2017-May-20 17:30N 49°58' W 002°59'611.9
2017-May-20 17:00N 49°60' W 002°50'611.6
2017-May-20 16:30N 50°01' W 002°42'7211.5
2017-May-20 10:14N 50°20' W 000°53'1614.0
2017-May-20 09:04N 50°24' W 000°28'113.8
2017-May-20 09:00N 50°25' W 000°26'713.6
2017-May-20 08:30N 50°26' W 000°16'713.4
2017-May-20 08:00N 50°28' W 000°06'713.2
2017-May-20 07:30N 50°30' E 000°04'612.9
2017-May-20 07:00N 50°32' E 000°14'612.7
2017-May-20 06:30N 50°33' E 000°24'3211.9
2017-May-20 03:50N 50°49' E 001°07'411.8
2017-May-20 03:30N 50°51' E 001°12'612.0
2017-May-20 03:00N 50°56' E 001°19'612.8
2017-May-20 02:30N 51°00' E 001°26'713.4
2017-May-20 02:00N 51°05' E 001°33'713.6
2017-May-20 01:30N 51°10' E 001°41'713.4
2017-May-20 01:00N 51°15' E 001°47'713.3
2017-May-20 00:30N 51°21' E 001°52'613.0
2017-May-20 00:00N 51°27' E 001°57'612.7
2017-May-19 23:30N 51°32' E 002°04'612.6
2017-May-19 23:00N 51°36' E 002°10'612.3
2017-May-19 22:30N 51°41' E 002°17'611.9
2017-May-19 22:01N 51°45' E 002°24'611.7
2017-May-19 21:30N 51°49' E 002°30'6011.5
2017-May-19 16:20N 52°24' E 003°49'512.5
2017-May-19 15:57N 52°24' E 003°57'612.3
2017-May-19 15:30N 52°26' E 004°05'3 4.9
2017-May-19 14:58N 52°28' E 004°09'0 0.0
2017-May-19 13:58N 52°28' E 004°09'0 0.0
2017-May-19 13:25N 52°28' E 004°09'0 0.1
2017-May-19 12:49N 52°28' E 004°09'0 0.1
2017-May-19 12:28N 52°28' E 004°09'0 0.0
2017-May-19 11:55N 52°28' E 004°09'0 0.1
2017-May-19 11:28N 52°28' E 004°09'0 0.0
2017-May-19 10:55N 52°28' E 004°09'0 0.1
2017-May-19 10:28N 52°28' E 004°09'0 0.1
2017-May-19 09:58N 52°28' E 004°09'0 0.1
2017-May-19 09:28N 52°28' E 004°09'0 0.0
2017-May-19 08:58N 52°28' E 004°09'0 0.1
2017-May-19 08:28N 52°28' E 004°09'0 0.0
2017-May-19 07:58N 52°28' E 004°09'0 0.0
2017-May-19 07:28N 52°28' E 004°09'0 0.0
2017-May-19 06:58N 52°28' E 004°09'0 0.0
2017-May-19 06:28N 52°28' E 004°09'0 0.1
2017-May-19 05:58N 52°28' E 004°09'0 0.0
2017-May-19 05:28N 52°28' E 004°09'0 0.0
2017-May-19 04:58N 52°28' E 004°09'0 0.0
2017-May-19 04:28N 52°28' E 004°09'0 0.1
2017-May-19 03:58N 52°28' E 004°09'0 0.3
2017-May-19 03:28N 52°28' E 004°08'0 0.1
2017-May-19 02:58N 52°28' E 004°08'0 0.0
2017-May-19 02:28N 52°28' E 004°08'0 0.0
2017-May-19 01:58N 52°28' E 004°08'0 0.0
2017-May-19 01:28N 52°28' E 004°08'0 0.0
2017-May-19 00:58N 52°28' E 004°08'0 0.0
2017-May-19 00:28N 52°28' E 004°08'0 0.0
2017-May-18 23:58N 52°28' E 004°08'0 0.0
2017-May-18 23:28N 52°28' E 004°08'0 0.0
2017-May-18 22:58N 52°28' E 004°08'0 0.0
2017-May-18 22:28N 52°28' E 004°08'0 0.2
2017-May-18 21:58N 52°28' E 004°09'0 0.1
2017-May-18 21:28N 52°28' E 004°09'0 0.0
2017-May-18 20:58N 52°28' E 004°09'0 0.0
2017-May-18 20:28N 52°28' E 004°09'0 0.0
2017-May-18 19:58N 52°28' E 004°09'0 0.0
2017-May-18 19:28N 52°28' E 004°09'0 0.2
2017-May-18 18:58N 52°28' E 004°08'0 0.2
2017-May-18 18:28N 52°28' E 004°09'0 0.0
2017-May-18 17:58N 52°28' E 004°09'0 0.0
2017-May-18 17:28N 52°28' E 004°09'0 0.0
2017-May-18 16:58N 52°28' E 004°09'0 0.1
2017-May-18 16:28N 52°28' E 004°09'0 0.0
2017-May-18 15:58N 52°28' E 004°09'0 0.0
2017-May-18 15:28N 52°28' E 004°09'0 0.0
2017-May-18 14:58N 52°28' E 004°09'0 0.0
2017-May-18 13:58N 52°28' E 004°09'0 0.0
2017-May-18 13:28N 52°28' E 004°09'0 0.0
2017-May-18 12:58N 52°28' E 004°09'0 0.0
2017-May-18 12:28N 52°28' E 004°09'0 0.0
2017-May-18 11:58N 52°28' E 004°09'0 0.1
2017-May-18 11:28N 52°28' E 004°09'0 0.1
2017-May-18 10:58N 52°28' E 004°09'0 0.0
2017-May-18 10:28N 52°28' E 004°09'0 0.1
2017-May-18 09:58N 52°28' E 004°09'0 0.1
2017-May-18 09:28N 52°28' E 004°09'0 0.0
2017-May-18 08:58N 52°28' E 004°09'0 0.0
2017-May-18 08:28N 52°28' E 004°09'0 0.0
2017-May-18 07:58N 52°28' E 004°09'0 0.0
2017-May-18 07:28N 52°28' E 004°09'0 0.0
2017-May-18 06:49N 52°28' E 004°09'0 0.1
2017-May-18 06:25N 52°28' E 004°09'0 0.0
2017-May-18 05:58N 52°28' E 004°09'0 0.0
2017-May-18 05:28N 52°28' E 004°09'0 0.0
2017-May-18 04:58N 52°28' E 004°09'0 0.1
2017-May-18 04:28N 52°28' E 004°09'0 0.0
2017-May-18 03:55N 52°28' E 004°09'0 0.1
2017-May-18 03:28N 52°28' E 004°09'0 0.2
2017-May-18 02:58N 52°28' E 004°09'0 0.0
2017-May-18 02:28N 52°28' E 004°09'0 0.0
2017-May-18 01:58N 52°28' E 004°09'0 0.1
2017-May-18 01:25N 52°28' E 004°09'0 0.0
2017-May-18 00:58N 52°28' E 004°09'0 0.0
2017-May-18 00:28N 52°28' E 004°09'0 0.0
2017-May-17 23:58N 52°28' E 004°09'0 0.3
2017-May-17 23:28N 52°28' E 004°09'0 0.0
2017-May-17 22:58N 52°28' E 004°09'0 0.3
2017-May-17 22:28N 52°28' E 004°09'0 0.1
2017-May-17 21:55N 52°28' E 004°09'0 0.0
2017-May-17 21:28N 52°28' E 004°09'0 0.0
2017-May-17 20:58N 52°28' E 004°09'0 0.0
2017-May-17 20:28N 52°28' E 004°09'0 0.0
2017-May-17 19:58N 52°28' E 004°09'0 0.0
2017-May-17 19:28N 52°28' E 004°09'0 0.0
2017-May-17 18:58N 52°28' E 004°09'0 0.0
2017-May-17 18:25N 52°28' E 004°09'0 0.0
2017-May-17 17:58N 52°28' E 004°09'0 0.1
2017-May-17 17:28N 52°28' E 004°09'0 0.3
2017-May-17 16:58N 52°28' E 004°08'0 0.2
2017-May-17 16:28N 52°28' E 004°08'0 0.0
2017-May-17 15:58N 52°28' E 004°08'0 0.0
2017-May-17 15:28N 52°28' E 004°08'0 0.0
2017-May-17 14:58N 52°28' E 004°08'0 0.0
2017-May-17 14:28N 52°28' E 004°08'0 0.0
2017-May-17 13:28N 52°28' E 004°08'0 0.0
2017-May-17 12:58N 52°28' E 004°08'0 0.0
2017-May-17 12:28N 52°28' E 004°08'0 0.0
2017-May-17 11:58N 52°28' E 004°08'0 0.0
2017-May-17 11:28N 52°28' E 004°08'0 0.0
2017-May-17 10:58N 52°28' E 004°08'0 0.0
2017-May-17 10:28N 52°28' E 004°08'0 0.0
2017-May-17 09:58N 52°28' E 004°08'0 0.3
2017-May-17 09:28N 52°28' E 004°08'0 0.1
2017-May-17 08:58N 52°28' E 004°09'0 0.1
2017-May-17 08:28N 52°28' E 004°09'0 0.0
2017-May-17 07:58N 52°28' E 004°09'0 0.0
2017-May-17 07:28N 52°28' E 004°09'0 0.0
2017-May-17 06:58N 52°28' E 004°09'0 0.0
2017-May-17 06:28N 52°28' E 004°09'0 0.0
2017-May-17 05:58N 52°28' E 004°09'0 0.1
2017-May-17 05:28N 52°28' E 004°09'2 3.7
2017-May-17 05:00N 52°28' E 004°06'611.4
2017-May-17 04:30N 52°27' E 003°57'612.2
2017-May-17 04:00N 52°26' E 003°47'612.0
2017-May-17 03:30N 52°25' E 003°37'611.8
2017-May-17 03:00N 52°22' E 003°29'911.6
2017-May-17 02:15N 52°16' E 003°19'311.3
2017-May-17 01:59N 52°14' E 003°15'3110.8
2017-May-16 23:07N 51°50' E 002°42'310.9
2017-May-16 22:52N 51°48' E 002°39'711.0
2017-May-16 22:11N 51°43' E 002°31'1611.6
2017-May-16 20:49N 51°31' E 002°14'412.2
2017-May-16 20:30N 51°28' E 002°10'612.2
2017-May-16 20:00N 51°23' E 002°04'612.3
2017-May-16 19:30N 51°19' E 001°57'612.6
2017-May-16 19:00N 51°14' E 001°50'612.9
2017-May-16 18:30N 51°09' E 001°44'713.0
2017-May-16 18:00N 51°04' E 001°37'713.5
2017-May-16 17:30N 50°59' E 001°30'713.9
2017-May-16 17:00N 50°53' E 001°25'713.7
2017-May-16 16:30N 50°46' E 001°22'1812.8
2017-May-16 15:06N 50°32' E 001°04'1212.5
2017-May-16 14:09N 50°27' E 000°47'913.0
2017-May-16 13:26N 50°25' E 000°33'613.4
2017-May-16 13:00N 50°23' E 000°24'713.6
2017-May-16 12:30N 50°22' E 000°14'714.0
2017-May-16 12:00N 50°20' E 000°04'714.5
2017-May-16 11:30N 50°20' W 000°08'814.7
2017-May-16 10:58N 50°20' W 000°20'714.1
2017-May-16 10:27N 50°24' W 000°30'613.7
2017-May-16 10:00N 50°28' W 000°36'713.7
2017-May-16 09:28N 50°34' W 000°44'613.9
2017-May-16 09:00N 50°38' W 000°51'510.8
2017-May-16 08:30N 50°42' W 000°58'713.2
2017-May-16 08:00N 50°45' W 001°07'713.7
2017-May-16 07:31N 50°47' W 001°17'4 7.7
2017-May-16 07:01N 50°50' W 001°19'0 0.7
2017-May-16 06:29N 50°50' W 001°20'0 0.0
2017-May-16 05:59N 50°50' W 001°20'0 0.0
2017-May-16 05:26N 50°50' W 001°20'0 0.0
2017-May-16 04:59N 50°50' W 001°20'0 0.0
2017-May-16 04:29N 50°50' W 001°20'0 0.0
2017-May-16 03:59N 50°50' W 001°20'0 0.0
2017-May-16 03:29N 50°50' W 001°20'0 0.0
2017-May-16 02:56N 50°50' W 001°20'0 0.0
2017-May-16 02:26N 50°50' W 001°20'0 0.0
2017-May-16 01:56N 50°50' W 001°20'0 0.0
2017-May-16 01:29N 50°50' W 001°20'0 0.0
2017-May-16 00:59N 50°50' W 001°20'0 0.0
2017-May-16 00:29N 50°50' W 001°20'0 0.0
2017-May-15 23:59N 50°50' W 001°20'0 0.0
2017-May-15 23:29N 50°50' W 001°20'0 0.0
2017-May-15 22:59N 50°50' W 001°20'0 0.0
2017-May-15 22:29N 50°50' W 001°20'0 0.0
2017-May-15 21:59N 50°50' W 001°20'0 0.0
2017-May-15 21:29N 50°50' W 001°20'0 0.0
2017-May-15 20:59N 50°50' W 001°20'0 0.0
2017-May-15 20:29N 50°50' W 001°20'0 0.0
2017-May-15 19:59N 50°50' W 001°20'0 0.0
2017-May-15 19:29N 50°50' W 001°20'0 0.0
2017-May-15 18:59N 50°50' W 001°20'0 0.0
2017-May-15 18:29N 50°50' W 001°20'0 0.0
2017-May-15 17:59N 50°50' W 001°20'0 0.0
2017-May-15 17:29N 50°50' W 001°20'0 0.0
2017-May-15 16:59N 50°50' W 001°20'0 0.0
2017-May-15 16:29N 50°50' W 001°20'0 0.0
2017-May-15 15:59N 50°50' W 001°20'0 0.0
2017-May-15 15:29N 50°50' W 001°20'0 0.0
2017-May-15 14:59N 50°50' W 001°20'0 0.0
2017-May-15 13:59N 50°50' W 001°20'0 0.0
2017-May-15 13:29N 50°50' W 001°20'0 0.0
2017-May-15 12:59N 50°50' W 001°20'0 0.0
2017-May-15 12:29N 50°50' W 001°20'0 0.0
2017-May-15 11:59N 50°50' W 001°20'0 0.0
2017-May-15 11:29N 50°50' W 001°20'0 0.0
2017-May-15 10:59N 50°50' W 001°20'0 0.0
2017-May-15 10:29N 50°50' W 001°20'0 0.0
2017-May-15 09:59N 50°50' W 001°20'0 0.0
2017-May-15 09:29N 50°50' W 001°20'0 0.0
2017-May-15 08:59N 50°50' W 001°20'0 0.0
2017-May-15 08:29N 50°50' W 001°20'0 0.0
2017-May-15 07:59N 50°50' W 001°20'0 0.0
2017-May-15 07:29N 50°50' W 001°20'0 0.0
2017-May-15 06:59N 50°50' W 001°20'0 0.0
2017-May-15 06:29N 50°50' W 001°20'0 0.0
2017-May-15 05:59N 50°50' W 001°20'0 0.0
2017-May-15 05:29N 50°50' W 001°20'0 0.0
2017-May-15 04:59N 50°50' W 001°20'0 0.0
2017-May-15 04:29N 50°50' W 001°20'0 0.0
2017-May-15 03:59N 50°50' W 001°20'0 0.0
2017-May-15 03:29N 50°50' W 001°20'0 0.0
2017-May-15 02:59N 50°50' W 001°20'0 0.0
2017-May-15 02:29N 50°50' W 001°20'0 0.0
2017-May-15 01:59N 50°50' W 001°20'0 0.0
2017-May-15 01:29N 50°50' W 001°20'0 0.0
2017-May-15 00:59N 50°50' W 001°20'0 0.0
2017-May-15 00:29N 50°50' W 001°20'0 0.0
2017-May-14 23:59N 50°50' W 001°20'0 0.0
2017-May-14 23:29N 50°50' W 001°20'0 0.0
2017-May-14 22:59N 50°50' W 001°20'0 0.0
2017-May-14 22:29N 50°50' W 001°20'0 0.0
2017-May-14 21:59N 50°50' W 001°20'0 0.0
2017-May-14 21:29N 50°50' W 001°20'0 0.0
2017-May-14 20:56N 50°50' W 001°20'0 0.0
2017-May-14 20:29N 50°50' W 001°20'0 0.0
2017-May-14 19:59N 50°50' W 001°20'0 0.0
2017-May-14 19:29N 50°50' W 001°20'0 0.0
2017-May-14 18:59N 50°50' W 001°20'0 0.0
2017-May-14 18:29N 50°50' W 001°20'0 0.0
2017-May-14 17:56N 50°50' W 001°20'0 0.0
2017-May-14 17:29N 50°50' W 001°20'0 0.0
2017-May-14 16:59N 50°50' W 001°20'0 0.0
2017-May-14 16:29N 50°50' W 001°20'0 0.0
2017-May-14 15:59N 50°50' W 001°20'0 0.0
2017-May-14 15:29N 50°50' W 001°20'0 0.0
2017-May-14 14:59N 50°50' W 001°20'0 0.0
2017-May-14 14:29N 50°50' W 001°20'0 0.0
2017-May-14 13:29N 50°50' W 001°20'0 0.0
2017-May-14 12:59N 50°50' W 001°20'0 0.0
2017-May-14 12:29N 50°50' W 001°20'0 0.0
2017-May-14 11:59N 50°50' W 001°20'0 0.0
2017-May-14 11:29N 50°50' W 001°20'0 0.0
2017-May-14 10:59N 50°50' W 001°20'0 0.0
2017-May-14 10:29N 50°50' W 001°20'0 0.0
2017-May-14 09:59N 50°50' W 001°20'0 0.0
2017-May-14 09:29N 50°50' W 001°20'0 0.0
2017-May-14 08:59N 50°50' W 001°20'0 0.0
2017-May-14 08:29N 50°50' W 001°20'0 0.0
2017-May-14 07:59N 50°50' W 001°20'0 0.0
2017-May-14 07:29N 50°50' W 001°20'0 0.0
2017-May-14 06:59N 50°50' W 001°20'0 0.0
2017-May-14 06:29N 50°50' W 001°20'0 0.0
2017-May-14 05:59N 50°50' W 001°20'0 0.0
2017-May-14 05:29N 50°50' W 001°20'0 0.0
2017-May-14 04:59N 50°50' W 001°20'0 0.0
2017-May-14 04:29N 50°50' W 001°20'0 0.0
2017-May-14 03:59N 50°50' W 001°20'0 0.0
2017-May-14 03:29N 50°50' W 001°20'0 0.0
2017-May-14 02:59N 50°50' W 001°20'0 0.0
2017-May-14 02:29N 50°50' W 001°20'0 0.0
2017-May-14 01:59N 50°50' W 001°20'0 0.0
2017-May-14 01:29N 50°50' W 001°20'0 0.0
2017-May-14 00:59N 50°50' W 001°20'0 0.0
2017-May-14 00:29N 50°50' W 001°20'0 0.0
2017-May-13 23:59N 50°50' W 001°20'0 0.0
2017-May-13 23:29N 50°50' W 001°20'0 0.0
2017-May-13 22:59N 50°50' W 001°20'0 0.0
2017-May-13 22:29N 50°50' W 001°20'0 0.0
2017-May-13 21:59N 50°50' W 001°20'0 0.0
2017-May-13 21:29N 50°50' W 001°20'0 0.0
2017-May-13 20:59N 50°50' W 001°20'0 0.0
2017-May-13 20:29N 50°50' W 001°20'0 0.0
2017-May-13 19:59N 50°50' W 001°20'0 0.0
2017-May-13 19:29N 50°50' W 001°20'0 0.0
2017-May-13 18:59N 50°50' W 001°20'0 0.0
2017-May-13 18:29N 50°50' W 001°20'0 0.0
2017-May-13 17:59N 50°50' W 001°20'0 0.0
2017-May-13 17:29N 50°50' W 001°20'0 0.0
2017-May-13 16:59N 50°50' W 001°20'0 0.0
2017-May-13 16:29N 50°50' W 001°20'0 0.0
2017-May-13 15:59N 50°50' W 001°20'0 0.0
2017-May-13 15:29N 50°50' W 001°20'0 0.0
2017-May-13 14:59N 50°50' W 001°20'0 0.0
2017-May-13 14:29N 50°50' W 001°20'0 0.0
2017-May-13 13:29N 50°50' W 001°20'0 0.0
2017-May-13 12:59N 50°50' W 001°20'0 0.0
2017-May-13 12:29N 50°50' W 001°20'0 0.0
2017-May-13 11:59N 50°50' W 001°20'0 0.0
2017-May-13 11:29N 50°50' W 001°20'0 0.0
2017-May-13 10:59N 50°50' W 001°20'0 0.0
2017-May-13 10:29N 50°50' W 001°20'0 0.0
2017-May-13 09:59N 50°50' W 001°20'0 0.0
2017-May-13 09:29N 50°50' W 001°20'0 0.0
2017-May-13 08:59N 50°50' W 001°20'0 0.0
2017-May-13 08:29N 50°50' W 001°20'0 0.0
2017-May-13 07:56N 50°50' W 001°20'0 0.0
2017-May-13 07:29N 50°50' W 001°20'0 0.0
2017-May-13 06:59N 50°50' W 001°20'  
Track history (hours):
 
Tides and Currents Weather Stations Pressure Air Temp Water Temp Dewpoint Dewpoint Depression Visibility Wind Speed Wind Dir Waves Ship Positions

Valtellina

Last reported at 2017-May-23 06:30 UTC. Time now 2017-May-23 06:55 UTC.
Position N 38°40' W 010°06'.

Length 184 m; draft 7.5 m.

Type: Ship. MMSI: 247243900.

Date/timePositionNaut miles runAvg speedWind from/ knotsBaromVisibWave heightAir tempDewpointWater temp
2017-May-23 06:30N 38°40' W 010°06'612.9
2017-May-23 06:00N 38°46' W 010°07'713.5
2017-May-23 05:30N 38°53' W 010°07'713.5
2017-May-23 05:00N 38°59' W 010°07'713.5
2017-May-23 04:30N 39°06' W 010°07'713.5
2017-May-23 04:00N 39°13' W 010°07'713.1
2017-May-23 03:30N 39°20' W 010°07'913.1
2017-May-23 02:49N 39°28' W 010°06'412.9
2017-May-23 02:30N 39°32' W 010°05'713.3
2017-May-23 02:00N 39°39' W 010°05'713.2
2017-May-23 01:30N 39°46' W 010°05'813.1
2017-May-23 00:54N 39°54' W 010°06'513.1
2017-May-23 00:30N 39°59' W 010°06'713.2
2017-May-23 00:00N 40°05' W 010°06'713.4
2017-May-22 23:30N 40°12' W 010°06'613.2
2017-May-22 23:00N 40°19' W 010°06'713.3
2017-May-22 22:30N 40°25' W 010°06'713.4
2017-May-22 21:57N 40°33' W 010°06'613.3
2017-May-22 21:30N 40°39' W 010°06'713.4
2017-May-22 21:00N 40°45' W 010°06'713.5
2017-May-22 20:30N 40°52' W 010°06'813.6
2017-May-22 19:54N 41°00' W 010°06'50012.6
2017-May-21 04:10N 48°46' W 005°52'513.4
2017-May-21 03:49N 48°50' W 005°48'513.1
2017-May-21 03:28N 48°54' W 005°44'1113.0
2017-May-21 02:35N 49°01' W 005°30'1212.5
2017-May-21 01:38N 49°07' W 005°14'412.2
2017-May-21 01:21N 49°09' W 005°10'512.1
2017-May-21 00:54N 49°11' W 005°03'612.0
2017-May-21 00:25N 49°14' W 004°55'611.9
2017-May-20 23:55N 49°18' W 004°47'511.9
2017-May-20 23:30N 49°20' W 004°41'811.9
2017-May-20 22:48N 49°24' W 004°29'412.1
2017-May-20 22:30N 49°26' W 004°24'712.3
2017-May-20 21:57N 49°29' W 004°15'712.6
2017-May-20 21:25N 49°32' W 004°06'512.8
2017-May-20 20:59N 49°35' W 003°59'913.0
2017-May-20 20:19N 49°40' W 003°48'413.1
2017-May-20 19:59N 49°42' W 003°42'713.2
2017-May-20 19:30N 49°45' W 003°33'613.1
2017-May-20 19:00N 49°48' W 003°24'612.8
2017-May-20 18:30N 49°51' W 003°16'612.7
2017-May-20 18:00N 49°54' W 003°07'612.4
2017-May-20 17:30N 49°58' W 002°59'611.9
2017-May-20 17:00N 49°60' W 002°50'611.6
2017-May-20 16:30N 50°01' W 002°42'7211.5
2017-May-20 10:14N 50°20' W 000°53'1614.0
2017-May-20 09:04N 50°24' W 000°28'113.8
2017-May-20 09:00N 50°25' W 000°26'713.6
2017-May-20 08:30N 50°26' W 000°16'713.4
2017-May-20 08:00N 50°28' W 000°06'713.2
2017-May-20 07:30N 50°30' E 000°04'612.9
2017-May-20 07:00N 50°32' E 000°14'612.7
2017-May-20 06:30N 50°33' E 000°24'3211.9
2017-May-20 03:50N 50°49' E 001°07'411.8
2017-May-20 03:30N 50°51' E 001°12'612.0
2017-May-20 03:00N 50°56' E 001°19'612.8
2017-May-20 02:30N 51°00' E 001°26'713.4
2017-May-20 02:00N 51°05' E 001°33'713.6
2017-May-20 01:30N 51°10' E 001°41'713.4
2017-May-20 01:00N 51°15' E 001°47'713.3
2017-May-20 00:30N 51°21' E 001°52'613.0
2017-May-20 00:00N 51°27' E 001°57'612.7
2017-May-19 23:30N 51°32' E 002°04'612.6
2017-May-19 23:00N 51°36' E 002°10'612.3
2017-May-19 22:30N 51°41' E 002°17'611.9
2017-May-19 22:01N 51°45' E 002°24'611.7
2017-May-19 21:30N 51°49' E 002°30'6011.5
2017-May-19 16:20N 52°24' E 003°49'512.5
2017-May-19 15:57N 52°24' E 003°57'612.3
2017-May-19 15:30N 52°26' E 004°05'3 4.9
2017-May-19 14:58N 52°28' E 004°09'0 0.0
2017-May-19 13:58N 52°28' E 004°09'0 0.0
2017-May-19 13:25N 52°28' E 004°09'0 0.1
2017-May-19 12:49N 52°28' E 004°09'0 0.1
2017-May-19 12:28N 52°28' E 004°09'0 0.0
2017-May-19 11:55N 52°28' E 004°09'0 0.1
2017-May-19 11:28N 52°28' E 004°09'0 0.0
2017-May-19 10:55N 52°28' E 004°09'0 0.1
2017-May-19 10:28N 52°28' E 004°09'0 0.1
2017-May-19 09:58N 52°28' E 004°09'0 0.1
2017-May-19 09:28N 52°28' E 004°09'0 0.0
2017-May-19 08:58N 52°28' E 004°09'0 0.1
2017-May-19 08:28N 52°28' E 004°09'0 0.0
2017-May-19 07:58N 52°28' E 004°09'0 0.0
2017-May-19 07:28N 52°28' E 004°09'0 0.0
2017-May-19 06:58N 52°28' E 004°09'0 0.0
2017-May-19 06:28N 52°28' E 004°09'0 0.1
2017-May-19 05:58N 52°28' E 004°09'0 0.0
2017-May-19 05:28N 52°28' E 004°09'0 0.0
2017-May-19 04:58N 52°28' E 004°09'0 0.0
2017-May-19 04:28N 52°28' E 004°09'0 0.1
2017-May-19 03:58N 52°28' E 004°09'0 0.3
2017-May-19 03:28N 52°28' E 004°08'0 0.1
2017-May-19 02:58N 52°28' E 004°08'0 0.0
2017-May-19 02:28N 52°28' E 004°08'0 0.0
2017-May-19 01:58N 52°28' E 004°08'0 0.0
2017-May-19 01:28N 52°28' E 004°08'0 0.0
2017-May-19 00:58N 52°28' E 004°08'0 0.0
2017-May-19 00:28N 52°28' E 004°08'0 0.0
2017-May-18 23:58N 52°28' E 004°08'0 0.0
2017-May-18 23:28N 52°28' E 004°08'0 0.0
2017-May-18 22:58N 52°28' E 004°08'0 0.0
2017-May-18 22:28N 52°28' E 004°08'0 0.2
2017-May-18 21:58N 52°28' E 004°09'0 0.1
2017-May-18 21:28N 52°28' E 004°09'0 0.0
2017-May-18 20:58N 52°28' E 004°09'0 0.0
2017-May-18 20:28N 52°28' E 004°09'0 0.0
2017-May-18 19:58N 52°28' E 004°09'0 0.0
2017-May-18 19:28N 52°28' E 004°09'0 0.2
2017-May-18 18:58N 52°28' E 004°08'0 0.2
2017-May-18 18:28N 52°28' E 004°09'0 0.0
2017-May-18 17:58N 52°28' E 004°09'0 0.0
2017-May-18 17:28N 52°28' E 004°09'0 0.0
2017-May-18 16:58N 52°28' E 004°09'0 0.1
2017-May-18 16:28N 52°28' E 004°09'0 0.0
2017-May-18 15:58N 52°28' E 004°09'0 0.0
2017-May-18 15:28N 52°28' E 004°09'0 0.0
2017-May-18 14:58N 52°28' E 004°09'0 0.0
2017-May-18 13:58N 52°28' E 004°09'0 0.0
2017-May-18 13:28N 52°28' E 004°09'0 0.0
2017-May-18 12:58N 52°28' E 004°09'0 0.0
2017-May-18 12:28N 52°28' E 004°09'0 0.0
2017-May-18 11:58N 52°28' E 004°09'0 0.1
2017-May-18 11:28N 52°28' E 004°09'0 0.1
2017-May-18 10:58N 52°28' E 004°09'0 0.0
2017-May-18 10:28N 52°28' E 004°09'0 0.1
2017-May-18 09:58N 52°28' E 004°09'0 0.1
2017-May-18 09:28N 52°28' E 004°09'0 0.0
2017-May-18 08:58N 52°28' E 004°09'0 0.0
2017-May-18 08:28N 52°28' E 004°09'0 0.0
2017-May-18 07:58N 52°28' E 004°09'0 0.0
2017-May-18 07:28N 52°28' E 004°09'0 0.0
2017-May-18 06:49N 52°28' E 004°09'0 0.1
2017-May-18 06:25N 52°28' E 004°09'0 0.0
2017-May-18 05:58N 52°28' E 004°09'0 0.0
2017-May-18 05:28N 52°28' E 004°09'0 0.0
2017-May-18 04:58N 52°28' E 004°09'0 0.1
2017-May-18 04:28N 52°28' E 004°09'0 0.0
2017-May-18 03:55N 52°28' E 004°09'0 0.1
2017-May-18 03:28N 52°28' E 004°09'0 0.2
2017-May-18 02:58N 52°28' E 004°09'0 0.0
2017-May-18 02:28N 52°28' E 004°09'0 0.0
2017-May-18 01:58N 52°28' E 004°09'0 0.1
2017-May-18 01:25N 52°28' E 004°09'0 0.0
2017-May-18 00:58N 52°28' E 004°09'0 0.0
2017-May-18 00:28N 52°28' E 004°09'0 0.0
2017-May-17 23:58N 52°28' E 004°09'0 0.3
2017-May-17 23:28N 52°28' E 004°09'0 0.0
2017-May-17 22:58N 52°28' E 004°09'0 0.3
2017-May-17 22:28N 52°28' E 004°09'0 0.1
2017-May-17 21:55N 52°28' E 004°09'0 0.0
2017-May-17 21:28N 52°28' E 004°09'0 0.0
2017-May-17 20:58N 52°28' E 004°09'0 0.0
2017-May-17 20:28N 52°28' E 004°09'0 0.0
2017-May-17 19:58N 52°28' E 004°09'0 0.0
2017-May-17 19:28N 52°28' E 004°09'0 0.0
2017-May-17 18:58N 52°28' E 004°09'0 0.0
2017-May-17 18:25N 52°28' E 004°09'0 0.0
2017-May-17 17:58N 52°28' E 004°09'0 0.1
2017-May-17 17:28N 52°28' E 004°09'0 0.3
2017-May-17 16:58N 52°28' E 004°08'0 0.2
2017-May-17 16:28N 52°28' E 004°08'0 0.0
2017-May-17 15:58N 52°28' E 004°08'0 0.0
2017-May-17 15:28N 52°28' E 004°08'0 0.0
2017-May-17 14:58N 52°28' E 004°08'0 0.0
2017-May-17 14:28N 52°28' E 004°08'0 0.0
2017-May-17 13:28N 52°28' E 004°08'0 0.0
2017-May-17 12:58N 52°28' E 004°08'0 0.0
2017-May-17 12:28N 52°28' E 004°08'0 0.0
2017-May-17 11:58N 52°28' E 004°08'0 0.0
2017-May-17 11:28N 52°28' E 004°08'0 0.0
2017-May-17 10:58N 52°28' E 004°08'0 0.0
2017-May-17 10:28N 52°28' E 004°08'0 0.0
2017-May-17 09:58N 52°28' E 004°08'0 0.3
2017-May-17 09:28N 52°28' E 004°08'0 0.1
2017-May-17 08:58N 52°28' E 004°09'0 0.1
2017-May-17 08:28N 52°28' E 004°09'0 0.0
2017-May-17 07:58N 52°28' E 004°09'0 0.0
2017-May-17 07:28N 52°28' E 004°09'0 0.0
2017-May-17 06:58N 52°28' E 004°09'0 0.0
2017-May-17 06:28N 52°28' E 004°09'0 0.0
2017-May-17 05:58N 52°28' E 004°09'0 0.1
2017-May-17 05:28N 52°28' E 004°09'2 3.7
2017-May-17 05:00N 52°28' E 004°06'611.4
2017-May-17 04:30N 52°27' E 003°57'612.2
2017-May-17 04:00N 52°26' E 003°47'612.0
2017-May-17 03:30N 52°25' E 003°37'611.8
2017-May-17 03:00N 52°22' E 003°29'911.6
2017-May-17 02:15N 52°16' E 003°19'311.3
2017-May-17 01:59N 52°14' E 003°15'3110.8
2017-May-16 23:07N 51°50' E 002°42'310.9
2017-May-16 22:52N 51°48' E 002°39'711.0
2017-May-16 22:11N 51°43' E 002°31'1611.6
2017-May-16 20:49N 51°31' E 002°14'412.2
2017-May-16 20:30N 51°28' E 002°10'612.2
2017-May-16 20:00N 51°23' E 002°04'612.3
2017-May-16 19:30N 51°19' E 001°57'612.6
2017-May-16 19:00N 51°14' E 001°50'612.9
2017-May-16 18:30N 51°09' E 001°44'713.0
2017-May-16 18:00N 51°04' E 001°37'713.5
2017-May-16 17:30N 50°59' E 001°30'713.9
2017-May-16 17:00N 50°53' E 001°25'713.7
2017-May-16 16:30N 50°46' E 001°22'1812.8
2017-May-16 15:06N 50°32' E 001°04'1212.5
2017-May-16 14:09N 50°27' E 000°47'913.0
2017-May-16 13:26N 50°25' E 000°33'613.4
2017-May-16 13:00N 50°23' E 000°24'713.6
2017-May-16 12:30N 50°22' E 000°14'714.0
2017-May-16 12:00N 50°20' E 000°04'714.5
2017-May-16 11:30N 50°20' W 000°08'814.7
2017-May-16 10:58N 50°20' W 000°20'714.1
2017-May-16 10:27N 50°24' W 000°30'613.7
2017-May-16 10:00N 50°28' W 000°36'713.7
2017-May-16 09:28N 50°34' W 000°44'613.9
2017-May-16 09:00N 50°38' W 000°51'510.8
2017-May-16 08:30N 50°42' W 000°58'713.2
2017-May-16 08:00N 50°45' W 001°07'713.7
2017-May-16 07:31N 50°47' W 001°17'4 7.7
2017-May-16 07:01N 50°50' W 001°19'0 0.7
2017-May-16 06:29N 50°50' W 001°20'0 0.0
2017-May-16 05:59N 50°50' W 001°20'0 0.0
2017-May-16 05:26N 50°50' W 001°20'0 0.0
2017-May-16 04:59N 50°50' W 001°20'0 0.0
2017-May-16 04:29N 50°50' W 001°20'0 0.0
2017-May-16 03:59N 50°50' W 001°20'0 0.0
2017-May-16 03:29N 50°50' W 001°20'0 0.0
2017-May-16 02:56N 50°50' W 001°20'0 0.0
2017-May-16 02:26N 50°50' W 001°20'0 0.0
2017-May-16 01:56N 50°50' W 001°20'0 0.0
2017-May-16 01:29N 50°50' W 001°20'0 0.0
2017-May-16 00:59N 50°50' W 001°20'0 0.0
2017-May-16 00:29N 50°50' W 001°20'0 0.0
2017-May-15 23:59N 50°50' W 001°20'0 0.0
2017-May-15 23:29N 50°50' W 001°20'0 0.0
2017-May-15 22:59N 50°50' W 001°20'0 0.0
2017-May-15 22:29N 50°50' W 001°20'0 0.0
2017-May-15 21:59N 50°50' W 001°20'0 0.0
2017-May-15 21:29N 50°50' W 001°20'0 0.0
2017-May-15 20:59N 50°50' W 001°20'0 0.0
2017-May-15 20:29N 50°50' W 001°20'0 0.0
2017-May-15 19:59N 50°50' W 001°20'0 0.0
2017-May-15 19:29N 50°50' W 001°20'0 0.0
2017-May-15 18:59N 50°50' W 001°20'0 0.0
2017-May-15 18:29N 50°50' W 001°20'0 0.0
2017-May-15 17:59N 50°50' W 001°20'0 0.0
2017-May-15 17:29N 50°50' W 001°20'0 0.0
2017-May-15 16:59N 50°50' W 001°20'0 0.0
2017-May-15 16:29N 50°50' W 001°20'0 0.0
2017-May-15 15:59N 50°50' W 001°20'0 0.0
2017-May-15 15:29N 50°50' W 001°20'0 0.0
2017-May-15 14:59N 50°50' W 001°20'0 0.0
2017-May-15 13:59N 50°50' W 001°20'0 0.0
2017-May-15 13:29N 50°50' W 001°20'0 0.0
2017-May-15 12:59N 50°50' W 001°20'0 0.0
2017-May-15 12:29N 50°50' W 001°20'0 0.0
2017-May-15 11:59N 50°50' W 001°20'0 0.0
2017-May-15 11:29N 50°50' W 001°20'0 0.0
2017-May-15 10:59N 50°50' W 001°20'0 0.0
2017-May-15 10:29N 50°50' W 001°20'0 0.0
2017-May-15 09:59N 50°50' W 001°20'0 0.0
2017-May-15 09:29N 50°50' W 001°20'0 0.0
2017-May-15 08:59N 50°50' W 001°20'0 0.0
2017-May-15 08:29N 50°50' W 001°20'0 0.0
2017-May-15 07:59N 50°50' W 001°20'0 0.0
2017-May-15 07:29N 50°50' W 001°20'0 0.0
2017-May-15 06:59N 50°50' W 001°20'0 0.0
2017-May-15 06:29N 50°50' W 001°20'0 0.0
2017-May-15 05:59N 50°50' W 001°20'0 0.0
2017-May-15 05:29N 50°50' W 001°20'0 0.0
2017-May-15 04:59N 50°50' W 001°20'0 0.0
2017-May-15 04:29N 50°50' W 001°20'0 0.0
2017-May-15 03:59N 50°50' W 001°20'0 0.0
2017-May-15 03:29N 50°50' W 001°20'0 0.0
2017-May-15 02:59N 50°50' W 001°20'0 0.0
2017-May-15 02:29N 50°50' W 001°20'0 0.0
2017-May-15 01:59N 50°50' W 001°20'0 0.0
2017-May-15 01:29N 50°50' W 001°20'0 0.0
2017-May-15 00:59N 50°50' W 001°20'0 0.0
2017-May-15 00:29N 50°50' W 001°20'0 0.0
2017-May-14 23:59N 50°50' W 001°20'0 0.0
2017-May-14 23:29N 50°50' W 001°20'0 0.0
2017-May-14 22:59N 50°50' W 001°20'0 0.0
2017-May-14 22:29N 50°50' W 001°20'0 0.0
2017-May-14 21:59N 50°50' W 001°20'0 0.0
2017-May-14 21:29N 50°50' W 001°20'0 0.0
2017-May-14 20:56N 50°50' W 001°20'0 0.0
2017-May-14 20:29N 50°50' W 001°20'0 0.0
2017-May-14 19:59N 50°50' W 001°20'0 0.0
2017-May-14 19:29N 50°50' W 001°20'0 0.0
2017-May-14 18:59N 50°50' W 001°20'0 0.0
2017-May-14 18:29N 50°50' W 001°20'0 0.0
2017-May-14 17:56N 50°50' W 001°20'0 0.0
2017-May-14 17:29N 50°50' W 001°20'0 0.0
2017-May-14 16:59N 50°50' W 001°20'0 0.0
2017-May-14 16:29N 50°50' W 001°20'0 0.0
2017-May-14 15:59N 50°50' W 001°20'0 0.0
2017-May-14 15:29N 50°50' W 001°20'0 0.0
2017-May-14 14:59N 50°50' W 001°20'0 0.0
2017-May-14 14:29N 50°50' W 001°20'0 0.0
2017-May-14 13:29N 50°50' W 001°20'0 0.0
2017-May-14 12:59N 50°50' W 001°20'0 0.0
2017-May-14 12:29N 50°50' W 001°20'0 0.0
2017-May-14 11:59N 50°50' W 001°20'0 0.0
2017-May-14 11:29N 50°50' W 001°20'0 0.0
2017-May-14 10:59N 50°50' W 001°20'0 0.0
2017-May-14 10:29N 50°50' W 001°20'0 0.0
2017-May-14 09:59N 50°50' W 001°20'0 0.0
2017-May-14 09:29N 50°50' W 001°20'0 0.0
2017-May-14 08:59N 50°50' W 001°20'0 0.0
2017-May-14 08:29N 50°50' W 001°20'0 0.0
2017-May-14 07:59N 50°50' W 001°20'0 0.0
2017-May-14 07:29N 50°50' W 001°20'0 0.0
2017-May-14 06:59N 50°50' W 001°20'0 0.0
2017-May-14 06:29N 50°50' W 001°20'0 0.0
2017-May-14 05:59N 50°50' W 001°20'0 0.0
2017-May-14 05:29N 50°50' W 001°20'0 0.0
2017-May-14 04:59N 50°50' W 001°20'0 0.0
2017-May-14 04:29N 50°50' W 001°20'0 0.0
2017-May-14 03:59N 50°50' W 001°20'0 0.0
2017-May-14 03:29N 50°50' W 001°20'0 0.0
2017-May-14 02:59N 50°50' W 001°20'0 0.0
2017-May-14 02:29N 50°50' W 001°20'0 0.0
2017-May-14 01:59N 50°50' W 001°20'0 0.0
2017-May-14 01:29N 50°50' W 001°20'0 0.0
2017-May-14 00:59N 50°50' W 001°20'0 0.0
2017-May-14 00:29N 50°50' W 001°20'0 0.0
2017-May-13 23:59N 50°50' W 001°20'0 0.0
2017-May-13 23:29N 50°50' W 001°20'0 0.0
2017-May-13 22:59N 50°50' W 001°20'0 0.0
2017-May-13 22:29N 50°50' W 001°20'0 0.0
2017-May-13 21:59N 50°50' W 001°20'0 0.0
2017-May-13 21:29N 50°50' W 001°20'0 0.0
2017-May-13 20:59N 50°50' W 001°20'0 0.0
2017-May-13 20:29N 50°50' W 001°20'0 0.0
2017-May-13 19:59N 50°50' W 001°20'0 0.0
2017-May-13 19:29N 50°50' W 001°20'0 0.0
2017-May-13 18:59N 50°50' W 001°20'0 0.0
2017-May-13 18:29N 50°50' W 001°20'0 0.0
2017-May-13 17:59N 50°50' W 001°20'0 0.0
2017-May-13 17:29N 50°50' W 001°20'0 0.0
2017-May-13 16:59N 50°50' W 001°20'0 0.0
2017-May-13 16:29N 50°50' W 001°20'0 0.0
2017-May-13 15:59N 50°50' W 001°20'0 0.0
2017-May-13 15:29N 50°50' W 001°20'0 0.0
2017-May-13 14:59N 50°50' W 001°20'0 0.0
2017-May-13 14:29N 50°50' W 001°20'0 0.0
2017-May-13 13:29N 50°50' W 001°20'0 0.0
2017-May-13 12:59N 50°50' W 001°20'0 0.0
2017-May-13 12:29N 50°50' W 001°20'0 0.0
2017-May-13 11:59N 50°50' W 001°20'0 0.0
2017-May-13 11:29N 50°50' W 001°20'0 0.0
2017-May-13 10:59N 50°50' W 001°20'0 0.0
2017-May-13 10:29N 50°50' W 001°20'0 0.0
2017-May-13 09:59N 50°50' W 001°20'0 0.0
2017-May-13 09:29N 50°50' W 001°20'0 0.0
2017-May-13 08:59N 50°50' W 001°20'0 0.0
2017-May-13 08:29N 50°50' W 001°20'0 0.0
2017-May-13 07:56N 50°50' W 001°20'0 0.0
2017-May-13 07:29N 50°50' W 001°20'0 0.0
2017-May-13 06:59N 50°50' W 001°20'  

Dump ship's entire track history